Terminal Aerodrome Forecast
Issued by NWS

Home | Current Version | Previous Version | Text Only | Print | Product List | Glossary On
Versions: 1 2 3 4 5 6 7 8 9 10 11 12 13 14 15 16 17
000
FTUS43 KJKL 161500 AAA
TAFSME
TAF AMD
KSME 161502Z 1615/1712 27012G20KT P6SM OVC025
     FM161700 26013G21KT P6SM VCSH OVC020
     FM162200 27007KT 4SM -DZ BR OVC010=

USA.gov is the U.S. government's official web portal to all federal, state and local government web resources and services.